Startpagina
METAR-TAF:

METAR-TAF

Vliegvelden :

Vlissingen, Nederland

breedte: 51-27N, lengte: 3-36E, hoogte: 10 m

Actueel weer

Dit bericht is 39 minuten geleden gemaakt, om 09:25 UTC
Wind 11 kt uit het zuiden
Temperatuur 1°C
Vochtigheid 93%
Druk 1019 hPa
Zicht: 5000 m
Weinig wolken op 3100 ft
Gebroken wolken op 3500 ft
Geheel bewolkt op 4300 ft
lichte motregen

METAR: EHFS 190925Z AUTO 18011KT 5000 -DZ FEW031 BKN035 OVC043 01/M00 Q1019 REDZ W///H///

Tijdstip: 11:04 (10:04 UTC)


TAF: ontbreekt

Waarnemingen en weersverwachtingen van meer dan 4000 vliegvelden (METAR en TAF).

De beschikbare stations zijn de gele en rode punten op de kaart.

Ga met uw muis naar het station om de naam te zien.

Klik dan om waarnemingen en weersverwachtingen te zien.

kaart wijzigen: klik op de groene knoppen met een zwart kruis om in te zoomen, op de groene knop met een streepje om uit te zoomen of op de groene pijlen voor aangrenzende kaarten.


METAR-TAF: